Time;durP1;ratioP1;P1;durP2;ratioP2;P2;SDS_P1;SDS_P2;PMS_P1;PMS_P2;Temp;Humidity;BMP_temperature;BMP_pressure;BME280_temperature;BME280_humidity;BME280_pressure;Samples;Min_cycle;Max_cycle;Signal;HPM_P1;HPM_P2
2021/04/17 00:01:34;;;;;;;5.97;2.77;;;;;;;4.37;88.39;98968.39;3770877;78;43331;-27
2021/04/17 00:06:40;;;;;;;3.80;2.30;;;;;;;4.44;86.74;98964.81;3772372;78;43575;-27
2021/04/17 00:11:46;;;;;;;4.87;2.20;;;;;;;4.49;86.54;98965.34;3772968;78;44135;-28
2021/04/17 00:16:52;;;;;;;5.77;2.30;;;;;;;4.52;88.25;98961.59;3772758;78;43454;-27
2021/04/17 00:21:58;;;;;;;3.17;2.30;;;;;;;4.46;89.21;98958.42;3772745;78;43755;-27
2021/04/17 00:27:06;;;;;;;6.47;2.60;;;;;;;4.42;92.23;98953.39;3768087;78;44258;-27
2021/04/17 00:32:12;;;;;;;3.67;2.30;;;;;;;4.37;93.13;98950.21;3773177;78;43390;-27
2021/04/17 00:37:18;;;;;;;4.17;2.40;;;;;;;4.35;86.44;98952.13;3772422;78;43369;-27
2021/04/17 00:42:25;;;;;;;4.07;2.10;;;;;;;4.32;88.66;98942.05;3772769;78;43940;-27
2021/04/17 00:47:34;;;;;;;5.57;2.03;;;;;;;4.28;85.97;98940.58;3772703;78;43668;-27
2021/04/17 00:52:42;;;;;;;4.13;2.40;;;;;;;4.29;87.65;98949.41;3772058;78;43705;-27
2021/04/17 00:57:49;;;;;;;3.73;2.20;;;;;;;4.32;90.32;98942.05;3772038;78;43211;-27
2021/04/17 01:02:58;;;;;;;4.37;2.30;;;;;;;4.22;88.56;98946.33;3772273;78;43466;-27
2021/04/17 01:08:07;;;;;;;3.87;1.90;;;;;;;4.20;88.31;98936.73;3768844;78;43054;-27
2021/04/17 01:13:15;;;;;;;4.77;1.83;;;;;;;4.14;87.94;98935.36;3719570;79;44057;-27
2021/04/17 01:18:23;;;;;;;2.93;1.73;;;;;;;4.06;89.04;98937.22;3773726;78;43399;-27
2021/04/17 01:23:34;;;;;;;3.77;2.33;;;;;;;3.99;87.68;98935.95;3814153;76;43408;-27
2021/04/17 01:28:42;;;;;;;3.17;1.90;;;;;;;3.95;88.32;98943.28;3772283;78;44046;-27
2021/04/17 01:33:52;;;;;;;5.40;2.40;;;;;;;3.93;90.37;98937.69;3763780;78;44231;-27
2021/04/17 01:39:00;;;;;;;3.23;2.07;;;;;;;3.84;91.02;98933.84;3815711;77;43463;-27
2021/04/17 01:44:10;;;;;;;4.27;1.97;;;;;;;3.87;91.34;98934.13;3766759;78;43042;-27
2021/04/17 01:49:17;;;;;;;2.93;1.90;;;;;;;3.83;91.12;98929.47;3815660;77;43411;-27
2021/04/17 01:54:27;;;;;;;2.73;1.70;;;;;;;3.82;90.28;98924.63;3810400;77;44456;-21
2021/04/17 01:59:35;;;;;;;4.90;1.70;;;;;;;3.79;91.62;98929.33;3812385;77;43469;-22
2021/04/17 02:04:41;;;;;;;3.10;1.70;;;;;;;3.66;90.95;98927.50;3766776;78;43786;-22
2021/04/17 02:09:47;;;;;;;3.83;1.80;;;;;;;3.62;89.81;98935.32;3768264;77;44012;-22
2021/04/17 02:14:53;;;;;;;4.20;1.73;;;;;;;3.63;90.10;98917.05;3832163;76;44095;-21
2021/04/17 02:20:03;;;;;;;4.17;1.87;;;;;;;3.59;91.20;98920.03;3795635;77;43428;-22
2021/04/17 02:25:13;;;;;;;4.60;2.00;;;;;;;3.60;93.10;98916.41;3826983;77;44043;-21
2021/04/17 02:30:20;;;;;;;2.67;1.47;;;;;;;3.60;91.83;98912.41;3827906;77;44166;-21
2021/04/17 02:35:26;;;;;;;3.50;1.90;;;;;;;3.61;92.41;98910.97;3830929;77;43722;-23
2021/04/17 02:40:32;;;;;;;2.67;1.90;;;;;;;3.61;93.60;98908.30;3829733;77;43979;-21
2021/04/17 02:45:37;;;;;;;3.50;1.97;;;;;;;3.53;95.06;98913.30;3825036;76;44045;-20
2021/04/17 02:50:43;;;;;;;3.30;1.67;;;;;;;3.46;97.55;98904.88;3831444;77;43747;-21
2021/04/17 02:55:49;;;;;;;3.73;1.70;;;;;;;3.40;99.12;98907.97;3829563;77;43222;-21
2021/04/17 03:00:55;;;;;;;4.50;1.60;;;;;;;3.34;99.34;98906.58;3784724;77;43713;-21
2021/04/17 03:06:01;;;;;;;3.97;1.67;;;;;;;3.33;95.69;98904.86;3712184;79;44361;-21
2021/04/17 03:11:06;;;;;;;3.13;1.97;;;;;;;3.30;97.57;98901.07;3773971;77;44591;-22
2021/04/17 03:16:14;;;;;;;2.80;1.30;;;;;;;3.30;97.03;98899.73;3821637;77;43726;-25
2021/04/17 03:21:21;;;;;;;5.47;1.77;;;;;;;3.33;96.13;98907.53;3821134;77;44138;-23
2021/04/17 03:26:26;;;;;;;3.70;1.50;;;;;;;3.29;95.52;98904.69;3768512;78;42919;-20
2021/04/17 03:31:34;;;;;;;2.90;1.53;;;;;;;3.27;97.13;98899.94;3814423;77;44133;-20
2021/04/17 03:36:40;;;;;;;3.13;1.60;;;;;;;3.17;99.21;98904.17;3810890;77;43414;-21
2021/04/17 03:41:46;;;;;;;3.33;1.40;;;;;;;3.06;100.00;98899.09;3814135;77;43370;-21
2021/04/17 03:46:52;;;;;;;9.57;3.00;;;;;;;3.08;96.47;98894.52;3762859;78;43689;-21
2021/04/17 03:51:58;;;;;;;5.10;1.60;;;;;;;3.15;97.34;98898.09;3758962;78;43676;-21
2021/04/17 03:57:05;;;;;;;2.80;1.50;;;;;;;3.16;96.01;98902.47;3814206;77;43374;-22
2021/04/17 04:02:11;;;;;;;3.90;1.73;;;;;;;3.15;96.43;98904.75;3771060;78;44043;-21
2021/04/17 04:07:18;;;;;;;2.70;1.67;;;;;;;3.17;95.39;98909.50;3814780;77;43377;-22
2021/04/17 04:12:25;;;;;;;4.70;1.63;;;;;;;3.21;94.75;98920.33;3770754;77;43366;-21
2021/04/17 04:17:32;;;;;;;3.63;1.97;;;;;;;3.19;94.33;98920.91;3811856;77;26327;-21
2021/04/17 04:22:39;;;;;;;3.03;1.90;;;;;;;3.25;94.34;98928.47;3770887;78;44038;-22
2021/04/17 04:27:45;;;;;;;3.50;2.13;;;;;;;3.29;95.64;98925.98;3812662;77;43684;-22
2021/04/17 04:32:51;;;;;;;2.97;2.17;;;;;;;3.14;97.65;98935.86;3700086;79;43464;-22
2021/04/17 04:37:57;;;;;;;3.03;2.30;;;;;;;2.93;100.00;98952.75;3691822;78;44079;-22
2021/04/17 04:43:03;;;;;;;4.83;2.60;;;;;;;2.69;100.00;98953.88;3815845;77;43447;-21
2021/04/17 04:48:10;;;;;;;3.80;2.57;;;;;;;2.57;100.00;98953.70;3765679;78;44134;-22
2021/04/17 04:53:16;;;;;;;4.97;2.57;;;;;;;2.32;100.00;98962.34;3748146;78;43704;-21
2021/04/17 04:58:22;;;;;;;5.17;2.70;;;;;;;2.12;100.00;98952.48;3813631;77;44806;-21
2021/04/17 05:03:28;;;;;;;3.93;2.40;;;;;;;2.06;100.00;98958.65;3817740;77;43720;-23
2021/04/17 05:08:34;;;;;;;4.37;2.60;;;;;;;2.04;100.00;98948.13;3769695;78;44059;-22
2021/04/17 05:13:41;;;;;;;6.00;2.90;;;;;;;2.04;100.00;98949.91;3784706;77;43697;-21
2021/04/17 05:18:47;;;;;;;6.00;2.93;;;;;;;2.07;100.00;98941.76;3830576;77;44069;-22
2021/04/17 05:23:56;;;;;;;5.10;2.33;;;;;;;2.14;100.00;98940.42;3831462;77;44178;-21
2021/04/17 05:29:03;;;;;;;4.03;2.77;;;;;;;2.19;100.00;98946.31;3834510;76;43724;-22
2021/04/17 05:34:10;;;;;;;4.77;3.37;;;;;;;2.14;100.00;98943.95;3830920;77;43302;-22
2021/04/17 05:39:16;;;;;;;5.87;3.20;;;;;;;2.21;100.00;98947.54;3796253;77;44003;-23
2021/04/17 05:44:22;;;;;;;9.00;3.40;;;;;;;2.24;100.00;98945.54;3829185;77;44047;-21
2021/04/17 05:49:28;;;;;;;3.97;2.63;;;;;;;2.30;100.00;98942.97;3828222;77;44040;-22
2021/04/17 05:54:34;;;;;;;5.97;3.47;;;;;;;2.23;100.00;98939.00;3798611;77;43625;-22
2021/04/17 05:59:39;;;;;;;5.37;3.03;;;;;;;2.30;100.00;98929.67;3826186;76;44061;-22
2021/04/17 06:04:46;;;;;;;5.83;2.90;;;;;;;2.24;100.00;98942.88;3801640;77;44693;-22
2021/04/17 06:09:51;;;;;;;5.57;2.97;;;;;;;2.21;100.00;98940.44;3828952;77;43674;-22
2021/04/17 06:14:57;;;;;;;4.47;3.00;;;;;;;2.34;100.00;98935.19;3772718;77;43458;-21
2021/04/17 06:20:05;;;;;;;4.20;3.10;;;;;;;2.25;100.00;98937.94;3662113;80;43373;-21
2021/04/17 06:25:13;;;;;;;6.67;3.37;;;;;;;2.32;100.00;98930.44;3813493;77;44006;-22
2021/04/17 06:30:20;;;;;;;7.43;3.23;;;;;;;2.26;100.00;98917.05;3709629;79;43400;-22
2021/04/17 06:35:27;;;;;;;5.17;2.70;;;;;;;2.29;100.00;98911.55;3817888;76;43708;-21
2021/04/17 06:40:32;;;;;;;5.43;3.23;;;;;;;2.29;100.00;98906.73;3815610;76;43295;-21
2021/04/17 06:45:40;;;;;;;7.73;3.13;;;;;;;2.35;100.00;98912.97;3821527;77;43628;-21
2021/04/17 06:50:46;;;;;;;5.30;3.20;;;;;;;2.41;100.00;98905.92;3815978;77;44062;-22
2021/04/17 06:55:53;;;;;;;3.80;3.03;;;;;;;2.49;100.00;98902.78;3772908;78;43690;-22
2021/04/17 07:01:00;;;;;;;5.20;2.93;;;;;;;2.51;100.00;98893.39;3813611;77;44239;-21
2021/04/17 07:06:06;;;;;;;5.50;3.00;;;;;;;2.60;100.00;98903.43;3755265;78;44706;-21
2021/04/17 07:11:12;;;;;;;4.87;2.87;;;;;;;2.68;100.00;98908.27;3760557;76;43046;-21
2021/04/17 07:16:18;;;;;;;4.83;2.90;;;;;;;2.72;100.00;98907.96;3816314;77;44047;-22
2021/04/17 07:21:28;;;;;;;5.27;3.00;;;;;;;2.82;100.00;98902.03;3812146;76;43445;-21
2021/04/17 07:26:35;;;;;;;4.67;3.00;;;;;;;2.89;100.00;98902.00;3815937;77;44096;-22
2021/04/17 07:31:49;;;;;;;4.87;3.23;;;;;;;3.01;100.00;98900.34;3685645;79;43437;-21
2021/04/17 07:36:57;;;;;;;4.50;3.07;;;;;;;3.11;100.00;98897.45;3724646;78;44062;-21
2021/04/17 07:42:07;;;;;;;4.80;3.40;;;;;;;3.23;100.00;98891.80;3724674;79;44053;-22
2021/04/17 07:47:13;;;;;;;5.37;3.20;;;;;;;3.23;100.00;98893.97;3767209;78;43677;-21
2021/04/17 07:52:19;;;;;;;5.10;3.20;;;;;;;3.31;100.00;98891.25;3817616;77;44464;-22
2021/04/17 07:57:31;;;;;;;7.37;3.30;;;;;;;3.36;100.00;98887.33;3814227;77;44022;-22
2021/04/17 08:02:39;;;;;;;7.60;3.37;;;;;;;3.45;100.00;98887.67;3815674;77;43931;-22
2021/04/17 08:07:46;;;;;;;5.40;2.90;;;;;;;3.48;100.00;98880.33;3822022;76;43409;-22
2021/04/17 08:12:52;;;;;;;7.00;3.13;;;;;;;3.53;100.00;98884.00;3816947;77;44025;-22
2021/04/17 08:17:58;;;;;;;4.17;2.90;;;;;;;3.59;100.00;98894.22;3821417;77;43298;-21
2021/04/17 08:23:05;;;;;;;6.80;2.70;;;;;;;3.64;100.00;98882.78;3703596;80;43159;-23
2021/04/17 08:28:19;;;;;;;6.03;2.80;;;;;;;3.60;100.00;98883.94;3818250;77;44561;-21
2021/04/17 08:33:25;;;;;;;6.53;3.10;;;;;;;3.72;100.00;98872.93;3809706;77;43365;-22
2021/04/17 08:38:37;;;;;;;6.87;2.97;;;;;;;3.79;100.00;98870.69;3815497;77;43511;-22
2021/04/17 08:43:44;;;;;;;4.43;2.90;;;;;;;3.84;100.00;98864.54;3818061;77;44051;-22
2021/04/17 08:48:53;;;;;;;5.57;3.00;;;;;;;3.85;100.00;98863.59;3813834;77;43929;-21
2021/04/17 08:54:18;;;;;;;3.73;2.70;;;;;;;4.01;100.00;98870.02;3818939;77;43521;-23
2021/04/17 08:59:27;;;;;;;5.17;3.00;;;;;;;4.15;100.00;98873.90;3815211;77;44769;-22
2021/04/17 09:04:37;;;;;;;5.20;3.00;;;;;;;4.29;100.00;98872.06;3821607;77;43490;-21
2021/04/17 09:09:42;;;;;;;5.67;3.10;;;;;;;4.37;100.00;98868.84;3819794;77;44102;-21
2021/04/17 09:14:56;;;;;;;7.77;3.27;;;;;;;4.39;100.00;98859.76;3820747;77;43615;-23
2021/04/17 09:20:04;;;;;;;5.30;3.37;;;;;;;4.60;100.00;98857.35;3816723;77;43428;-21
2021/04/17 09:25:12;;;;;;;8.07;3.63;;;;;;;4.80;100.00;98851.02;3704144;80;43710;-21
2021/04/17 09:30:20;;;;;;;6.37;2.87;;;;;;;4.84;100.00;98853.84;3818843;77;43400;-20
2021/04/17 09:35:30;;;;;;;4.90;2.87;;;;;;;4.72;100.00;98852.08;3818074;77;44061;-21
2021/04/17 09:40:43;;;;;;;5.83;3.13;;;;;;;4.67;100.00;98844.88;3816616;77;44409;-21
2021/04/17 09:45:51;;;;;;;5.03;2.77;;;;;;;4.69;100.00;98841.62;3816527;77;44002;-21
2021/04/17 09:50:57;;;;;;;4.87;2.87;;;;;;;4.77;100.00;98835.22;3686399;80;44032;-22
2021/04/17 09:56:07;;;;;;;4.53;2.80;;;;;;;4.82;100.00;98830.41;3666899;80;43620;-20
2021/04/17 10:01:15;;;;;;;6.33;3.07;;;;;;;4.97;100.00;98834.23;3664574;80;44020;-23
2021/04/17 10:06:27;;;;;;;5.50;3.30;;;;;;;5.22;100.00;98829.20;3624035;79;113423;-22
2021/04/17 10:11:33;;;;;;;6.37;3.00;;;;;;;5.47;100.00;98824.15;3628543;82;44076;-22
2021/04/17 10:16:41;;;;;;;6.13;3.10;;;;;;;5.53;100.00;98818.81;3663923;80;44027;-22
2021/04/17 10:21:56;;;;;;;4.37;2.63;;;;;;;5.52;100.00;98817.98;3677356;80;43615;-22
2021/04/17 10:27:05;;;;;;;5.23;3.10;;;;;;;5.71;100.00;98813.85;3687171;80;44074;-22
2021/04/17 10:32:14;;;;;;;6.03;3.00;;;;;;;5.95;100.00;98806.20;3678886;80;44039;-22
2021/04/17 10:37:22;;;;;;;5.10;2.80;;;;;;;6.05;100.00;98806.36;3674190;80;43372;-23
2021/04/17 10:42:43;;;;;;;6.27;3.00;;;;;;;6.38;100.00;98808.14;3725978;79;43480;-22
2021/04/17 10:48:15;;;;;;;6.73;3.47;;;;;;;6.40;100.00;98805.33;3673846;80;43382;-22
2021/04/17 10:53:25;;;;;;;4.10;2.80;;;;;;;6.56;100.00;98799.56;3669979;80;43954;-21
2021/04/17 10:58:35;;;;;;;5.30;3.00;;;;;;;6.60;100.00;98793.83;3672126;80;44051;-21
2021/04/17 11:03:44;;;;;;;5.73;2.50;;;;;;;6.31;100.00;98784.17;3676710;80;43730;-22
2021/04/17 11:08:52;;;;;;;6.73;2.73;;;;;;;6.37;100.00;98785.03;3676028;80;43389;-21
2021/04/17 11:14:00;;;;;;;5.70;2.90;;;;;;;6.39;100.00;98782.22;3670420;79;43597;-22
2021/04/17 11:19:07;;;;;;;5.07;2.80;;;;;;;6.47;100.00;98791.32;3667588;80;44007;-22
2021/04/17 11:24:14;;;;;;;5.03;2.77;;;;;;;6.41;100.00;98787.80;3666116;80;43701;-22
2021/04/17 11:29:19;;;;;;;5.60;2.80;;;;;;;6.43;100.00;98788.52;3667518;80;43728;-21
2021/04/17 11:34:25;;;;;;;5.37;3.37;;;;;;;6.46;100.00;98785.61;3669904;80;44083;-22
2021/04/17 11:39:31;;;;;;;5.17;2.93;;;;;;;6.74;100.00;98780.66;3668423;80;43416;-21
2021/04/17 11:44:37;;;;;;;6.47;3.53;;;;;;;6.53;99.99;98775.24;3663807;80;43427;-22
2021/04/17 11:49:43;;;;;;;4.93;2.83;;;;;;;6.81;100.00;98769.41;3729598;79;44065;-21
2021/04/17 11:54:50;;;;;;;4.53;3.10;;;;;;;6.72;98.12;98776.38;3654358;81;44073;-20
2021/04/17 11:59:56;;;;;;;5.70;3.10;;;;;;;6.79;91.68;98767.70;3674466;80;69579;-22
2021/04/17 12:05:02;;;;;;;5.40;2.97;;;;;;;7.04;96.21;98766.98;3646639;81;69478;-21
2021/04/17 12:10:10;;;;;;;8.33;3.50;;;;;;;7.26;94.30;98781.22;3660448;81;43320;-22
2021/04/17 12:15:18;;;;;;;4.13;2.80;;;;;;;7.02;88.90;98776.97;3663437;80;44022;-22
2021/04/17 12:20:26;;;;;;;5.30;3.10;;;;;;;7.39;93.27;98787.74;3698457;79;43057;-22
2021/04/17 12:25:32;;;;;;;7.13;2.73;;;;;;;7.26;86.09;98775.86;3667378;79;43682;-22
2021/04/17 12:30:38;;;;;;;6.83;3.30;;;;;;;7.38;92.56;98784.19;3672163;79;44006;-22
2021/04/17 12:35:45;;;;;;;4.93;3.10;;;;;;;7.65;93.01;98782.80;3665328;79;64845;-22
2021/04/17 12:40:54;;;;;;;3.57;2.60;;;;;;;7.36;82.36;98783.47;3679413;80;43414;-22
2021/04/17 12:46:00;;;;;;;5.67;2.90;;;;;;;7.16;80.90;98781.66;3667261;79;43227;-21
2021/04/17 12:51:08;;;;;;;4.03;2.60;;;;;;;7.09;89.06;98770.61;3660580;80;43292;-22
2021/04/17 12:56:14;;;;;;;3.93;2.10;;;;;;;7.02;79.68;98772.12;3672210;79;44129;-22
2021/04/17 13:01:20;;;;;;;3.75;1.90;;;;;;;7.07;75.61;98765.39;3664978;79;73277;-21
2021/04/17 13:06:27;;;;;;;5.63;2.23;;;;;;;7.33;80.37;98773.03;3667422;79;44383;-23
2021/04/17 13:11:33;;;;;;;5.57;2.03;;;;;;;7.20;74.80;98775.89;3670782;80;44839;-21
2021/04/17 13:16:40;;;;;;;3.27;2.00;;;;;;;7.03;75.01;98769.30;3630425;79;44205;-22
2021/04/17 13:21:46;;;;;;;3.57;2.33;;;;;;;7.04;70.67;98772.84;3615959;81;43733;-21
2021/04/17 13:26:52;;;;;;;3.80;2.60;;;;;;;7.14;75.87;98768.88;3568454;82;43669;-21
2021/04/17 13:31:58;;;;;;;6.27;3.00;;;;;;;7.14;76.95;98766.19;3588687;81;44033;-22
2021/04/17 13:37:05;;;;;;;4.60;3.10;;;;;;;7.16;74.92;98772.28;3601712;81;43701;-21
2021/04/17 13:42:11;;;;;;;4.10;2.63;;;;;;;7.06;79.73;98767.70;3595372;81;42876;-22
2021/04/17 13:47:17;;;;;;;5.43;2.77;;;;;;;7.22;77.77;98759.71;3620795;81;42842;-21
2021/04/17 13:52:24;;;;;;;5.90;3.13;;;;;;;7.14;79.33;98756.81;3555172;82;43716;-21
2021/04/17 13:57:30;;;;;;;4.70;2.87;;;;;;;7.24;74.87;98759.06;3560896;81;43483;-21
2021/04/17 14:02:36;;;;;;;4.13;3.00;;;;;;;7.19;78.57;98750.58;3558628;81;43190;-23
2021/04/17 14:07:42;;;;;;;7.07;3.80;;;;;;;7.18;81.91;98748.88;3554708;82;44073;-22
2021/04/17 14:12:49;;;;;;;6.20;3.50;;;;;;;7.45;78.12;98748.83;3560904;82;69542;-23
2021/04/17 14:17:55;;;;;;;5.40;3.00;;;;;;;7.08;80.89;98751.02;3598321;81;44125;-22
2021/04/17 14:23:02;;;;;;;5.53;3.20;;;;;;;7.18;81.43;98743.02;3594777;82;42781;-22
2021/04/17 14:28:08;;;;;;;6.93;3.40;;;;;;;7.27;83.51;98741.39;3643829;81;43697;-22
2021/04/17 14:33:14;;;;;;;6.20;3.70;;;;;;;7.03;85.75;98742.51;3601213;81;43249;-22
2021/04/17 14:38:21;;;;;;;7.17;4.10;;;;;;;7.17;85.96;98737.80;3586504;81;43392;-22
2021/04/17 14:43:29;;;;;;;11.57;4.40;;;;;;;7.23;83.31;98739.97;3597498;82;72212;-22
2021/04/17 14:48:35;;;;;;;8.50;4.87;;;;;;;7.18;85.19;98737.66;3549413;83;44023;-22
2021/04/17 14:53:43;;;;;;;5.83;4.67;;;;;;;6.91;86.73;98741.73;3574556;81;44072;-22
2021/04/17 14:58:50;;;;;;;10.77;5.60;;;;;;;6.81;87.75;98734.59;3570289;82;43343;-22
2021/04/17 15:03:56;;;;;;;10.37;6.00;;;;;;;7.15;90.38;98730.38;3576762;82;43994;-23
2021/04/17 15:09:04;;;;;;;9.93;6.20;;;;;;;7.19;89.27;98730.48;3570416;82;44033;-23
2021/04/17 15:14:12;;;;;;;12.60;7.00;;;;;;;7.22;90.79;98740.95;3567265;81;43713;-22
2021/04/17 15:19:19;;;;;;;10.93;7.10;;;;;;;7.14;91.02;98738.06;3631608;80;43311;-22
2021/04/17 15:24:25;;;;;;;10.17;7.10;;;;;;;6.93;94.95;98741.59;3665475;80;44014;-22
2021/04/17 15:29:32;;;;;;;10.43;6.90;;;;;;;6.91;95.72;98734.17;3663973;80;44079;-22
2021/04/17 15:34:38;;;;;;;12.90;7.50;;;;;;;6.84;95.81;98735.19;3666840;80;43481;-21
2021/04/17 15:39:45;;;;;;;9.70;7.30;;;;;;;6.99;97.50;98733.05;3668287;80;43270;-22
2021/04/17 15:44:51;;;;;;;10.57;7.50;;;;;;;6.71;96.01;98736.72;3667167;80;43714;-22
2021/04/17 15:49:57;;;;;;;9.50;8.00;;;;;;;6.74;98.87;98735.13;3663163;80;44033;-21
2021/04/17 15:55:03;;;;;;;8.60;7.20;;;;;;;6.77;95.17;98738.86;3623401;80;44025;-22
2021/04/17 16:16:31;;;;;;;11.43;6.50;;;;;;;7.27;96.24;98711.91;3677629;79;75708;-22
2021/04/17 16:21:37;;;;;;;8.53;6.30;;;;;;;7.42;95.45;98721.78;3723948;78;43161;-22
2021/04/17 16:26:44;;;;;;;11.27;6.33;;;;;;;7.96;91.88;98712.18;3722237;78;44642;-22
2021/04/17 16:31:51;;;;;;;8.30;5.90;;;;;;;8.16;91.34;98719.78;3728291;78;43685;-22
2021/04/17 16:36:59;;;;;;;8.17;6.03;;;;;;;8.36;91.06;98726.52;3720866;78;42994;-22
2021/04/17 16:42:06;;;;;;;10.47;6.23;;;;;;;7.92;92.76;98719.66;3725290;78;43716;-22
2021/04/17 16:47:13;;;;;;;17.80;11.97;;;;;;;7.78;94.33;98727.57;3724488;78;43754;-22
2021/04/17 16:52:19;;;;;;;11.57;7.60;;;;;;;7.60;95.40;98732.72;3722857;78;43058;-22
2021/04/17 16:57:25;;;;;;;9.17;6.40;;;;;;;7.30;94.17;98724.18;3668766;81;43061;-23
2021/04/17 17:02:31;;;;;;;10.00;7.13;;;;;;;7.16;99.87;98724.05;3685618;79;44695;-23
2021/04/17 17:07:39;;;;;;;11.30;6.43;;;;;;;7.15;99.68;98725.89;3603063;81;44608;-22
2021/04/17 17:12:46;;;;;;;10.17;6.20;;;;;;;6.97;95.69;98732.33;3723205;78;43982;-22
2021/04/17 17:17:52;;;;;;;10.25;5.95;;;;;;;6.99;98.88;98727.70;3717214;78;71707;-33
2021/04/17 17:22:59;;;;;;;7.80;5.83;;;;;;;7.16;99.61;98719.55;3614968;81;44087;-22
2021/04/17 17:28:05;;;;;;;11.17;5.90;;;;;;;7.11;99.66;98728.97;3705371;79;44086;-23
2021/04/17 17:33:11;;;;;;;8.88;5.70;;;;;;;7.09;97.44;98725.06;3612906;81;69093;-23
2021/04/17 17:38:18;;;;;;;11.70;5.92;;;;;;;7.04;97.47;98729.98;3704719;79;43743;-22
2021/04/17 17:43:23;;;;;;;8.57;5.63;;;;;;;7.04;97.65;98727.30;3702052;79;43445;-23
2021/04/17 17:48:29;;;;;;;9.33;5.72;;;;;;;6.94;97.03;98730.73;3704333;79;43436;-25
2021/04/17 17:53:35;;;;;;;8.00;5.13;;;;;;;6.92;97.63;98733.20;3705054;79;43730;-22
2021/04/17 17:58:42;;;;;;;8.37;5.43;;;;;;;6.92;99.03;98734.06;3705460;79;43456;-22
2021/04/17 18:03:48;;;;;;;8.90;5.40;;;;;;;6.92;100.00;98735.87;3704954;79;43690;-22
2021/04/17 18:08:55;;;;;;;9.70;5.00;;;;;;;6.90;100.00;98736.48;3701036;79;43664;-23
2021/04/17 18:14:03;;;;;;;9.07;5.30;;;;;;;6.92;100.00;98740.77;3705568;79;44106;-25
2021/04/17 18:19:09;;;;;;;8.03;5.43;;;;;;;6.91;100.00;98738.20;3699090;79;69053;-25
2021/04/17 18:24:17;;;;;;;8.13;5.30;;;;;;;6.96;100.00;98749.38;3690657;79;44084;-25
2021/04/17 18:29:23;;;;;;;9.43;5.33;;;;;;;6.98;100.00;98746.56;3685914;79;43424;-23
2021/04/17 18:34:31;;;;;;;7.93;5.20;;;;;;;6.98;100.00;98752.78;3688784;79;43331;-24
2021/04/17 18:39:37;;;;;;;8.50;5.87;;;;;;;6.92;100.00;98751.95;3691101;79;44098;-24
2021/04/17 18:44:44;;;;;;;7.67;5.83;;;;;;;6.94;100.00;98754.02;3576910;81;43250;-24
2021/04/17 18:49:51;;;;;;;9.03;5.67;;;;;;;6.91;100.00;98757.81;3686754;79;43423;-24
2021/04/17 18:54:57;;;;;;;9.57;5.40;;;;;;;6.91;100.00;98757.81;3683263;79;43437;-23
2021/04/17 19:00:04;;;;;;;9.10;5.70;;;;;;;6.88;100.00;98755.38;3683845;79;44539;-24
2021/04/17 19:05:12;;;;;;;8.10;5.83;;;;;;;6.81;100.00;98756.02;3689115;79;44055;-24
2021/04/17 19:10:19;;;;;;;9.40;6.03;;;;;;;6.76;100.00;98759.09;3687125;79;43688;-24
2021/04/17 19:15:26;;;;;;;9.47;6.03;;;;;;;6.73;100.00;98754.84;3685410;79;43976;-23
2021/04/17 19:20:35;;;;;;;9.70;6.20;;;;;;;6.67;100.00;98752.67;3705545;78;69116;-23
2021/04/17 19:25:41;;;;;;;9.97;6.23;;;;;;;6.59;100.00;98759.16;3722492;78;43271;-24
2021/04/17 19:30:48;;;;;;;10.38;6.47;;;;;;;6.50;100.00;98757.25;3723193;78;71175;-24
2021/04/17 19:35:54;;;;;;;10.30;7.10;;;;;;;6.44;100.00;98754.09;3723869;78;43720;-25
2021/04/17 19:41:02;;;;;;;12.43;7.53;;;;;;;6.43;100.00;98757.74;3638247;80;44103;-22
2021/04/17 19:46:09;;;;;;;13.53;7.30;;;;;;;6.42;100.00;98761.39;3723188;78;43471;-22
2021/04/17 19:51:15;;;;;;;13.37;8.30;;;;;;;6.44;100.00;98757.27;3723514;78;43331;-20
2021/04/17 19:56:21;;;;;;;12.17;7.80;;;;;;;6.41;100.00;98759.69;3723346;78;75257;-21
2021/04/17 20:01:34;;;;;;;12.03;8.00;;;;;;;6.38;100.00;98759.97;3722021;78;43392;-21
2021/04/17 20:06:38;;;;;;;14.60;7.97;;;;;;;6.32;100.00;98756.44;3722714;78;45207;-21
2021/04/17 20:11:44;;;;;;;10.50;7.17;;;;;;;6.27;100.00;98762.17;3719451;78;44067;-21
2021/04/17 20:16:50;;;;;;;9.70;7.10;;;;;;;6.26;100.00;98763.65;3723321;78;43403;-21
2021/04/17 20:21:56;;;;;;;11.97;8.00;;;;;;;6.24;100.00;98758.91;3724361;78;44068;-21
2021/04/17 20:27:03;;;;;;;11.85;7.42;;;;;;;6.23;100.00;98751.84;3720371;78;75268;-21
2021/04/17 20:32:09;;;;;;;10.63;7.40;;;;;;;6.14;100.00;98749.43;3638523;80;43309;-23
2021/04/17 20:37:15;;;;;;;12.43;8.00;;;;;;;6.18;100.00;98752.23;3723769;78;44573;-21
2021/04/17 20:42:23;;;;;;;11.63;8.43;;;;;;;6.19;100.00;98753.06;3721953;78;43999;-22
2021/04/17 20:47:29;;;;;;;14.60;10.37;;;;;;;6.16;100.00;98755.05;3723692;78;44721;-22
2021/04/17 20:52:34;;;;;;;13.33;10.57;;;;;;;6.14;100.00;98752.97;3720674;78;43103;-21
2021/04/17 20:57:42;;;;;;;16.00;10.50;;;;;;;6.12;100.00;98759.40;3723290;78;43397;-21
2021/04/17 21:02:48;;;;;;;14.93;11.77;;;;;;;6.12;100.00;98761.61;3723876;78;44089;-23
2021/04/17 21:07:53;;;;;;;14.10;10.57;;;;;;;6.10;100.00;98752.84;3723172;78;44064;-23
2021/04/17 21:12:59;;;;;;;16.80;10.40;;;;;;;6.10;100.00;98754.69;3638620;80;44065;-21
2021/04/17 21:18:06;;;;;;;16.80;11.57;;;;;;;6.09;100.00;98748.47;3723236;78;43388;-22
2021/04/17 21:23:12;;;;;;;17.80;11.13;;;;;;;6.00;100.00;98743.87;3699005;78;43338;-22
2021/04/17 21:28:18;;;;;;;15.87;10.37;;;;;;;5.86;100.00;98748.98;3694799;79;44061;-21
2021/04/17 21:33:24;;;;;;;17.50;9.53;;;;;;;5.85;100.00;98737.91;3690094;79;44016;-21
2021/04/17 21:38:31;;;;;;;14.80;10.10;;;;;;;5.87;100.00;98744.00;3693212;79;43766;-21
2021/04/17 21:43:36;;;;;;;15.63;10.00;;;;;;;5.79;100.00;98745.08;3574267;81;43702;-26
2021/04/17 21:48:43;;;;;;;14.73;9.60;;;;;;;5.73;100.00;98745.08;3703715;79;43689;-26
2021/04/17 21:53:51;;;;;;;17.43;9.67;;;;;;;5.66;100.00;98736.70;3714839;79;44477;-26
2021/04/17 21:58:57;;;;;;;16.03;10.20;;;;;;;5.65;100.00;98739.50;3707666;79;44045;-26
2021/04/17 22:04:03;;;;;;;16.37;10.87;;;;;;;5.60;100.00;98744.35;3708380;79;44218;-26
2021/04/17 22:09:10;;;;;;;16.73;10.73;;;;;;;5.50;100.00;98740.23;3707577;79;43521;-26
2021/04/17 22:14:19;;;;;;;14.87;10.70;;;;;;;5.51;100.00;98744.62;3697236;79;44047;-25
2021/04/17 22:19:24;;;;;;;17.00;11.37;;;;;;;5.48;100.00;98735.50;3689061;79;44060;-27
2021/04/17 22:24:32;;;;;;;18.47;12.00;;;;;;;5.38;100.00;98731.35;3717321;78;43112;-25
2021/04/17 22:29:38;;;;;;;19.07;12.90;;;;;;;5.36;100.00;98725.27;3704755;79;43681;-25
2021/04/17 22:34:44;;;;;;;21.17;13.03;;;;;;;5.27;100.00;98722.00;3708119;79;43349;-26
2021/04/17 22:39:50;;;;;;;18.60;13.43;;;;;;;5.21;100.00;98721.98;3706221;79;44099;-25
2021/04/17 22:44:55;;;;;;;16.53;13.00;;;;;;;5.20;100.00;98715.81;3587225;81;44412;-26
2021/04/17 22:50:02;;;;;;;19.83;13.73;;;;;;;5.12;100.00;98712.86;3578023;81;43719;-26
2021/04/17 22:55:11;;;;;;;21.23;13.80;;;;;;;5.07;100.00;98719.06;3643071;80;43718;-26
2021/04/17 23:00:20;;;;;;;20.10;14.10;;;;;;;5.07;100.00;98718.56;3707123;79;43406;-26
2021/04/17 23:05:26;;;;;;;19.50;14.70;;;;;;;5.10;100.00;98712.16;3708741;79;44035;-25
2021/04/17 23:10:31;;;;;;;21.97;13.03;;;;;;;5.11;100.00;98706.31;3707711;79;43717;-26
2021/04/17 23:15:37;;;;;;;21.70;14.10;;;;;;;5.11;100.00;98704.52;3707467;79;43718;-25
2021/04/17 23:20:43;;;;;;;18.13;13.37;;;;;;;5.14;100.00;98708.27;3706582;79;43676;-27
2021/04/17 23:25:49;;;;;;;18.57;13.20;;;;;;;5.13;100.00;98702.55;3706356;79;44085;-27
2021/04/17 23:30:55;;;;;;;21.47;14.53;;;;;;;5.15;100.00;98707.30;3707108;79;44084;-27
2021/04/17 23:36:00;;;;;;;21.40;15.00;;;;;;;5.13;100.00;98699.05;3708706;79;44607;-27
2021/04/17 23:41:06;;;;;;;21.07;14.33;;;;;;;5.09;100.00;98691.77;3706913;79;44140;-27
2021/04/17 23:46:12;;;;;;;20.07;14.53;;;;;;;5.05;100.00;98687.16;3617128;80;43672;-24
2021/04/17 23:51:19;;;;;;;23.40;15.63;;;;;;;5.07;100.00;98697.70;3707851;79;43393;-25
2021/04/17 23:56:30;;;;;;;20.60;15.10;;;;;;;5.09;100.00;98684.59;3708286;79;44088;-26
